createdAt,value
2019-02-06T00:00:43.078Z,1026.36
2019-02-06T00:01:43.044Z,1026.37
2019-02-06T00:02:43.006Z,1026.43
2019-02-06T00:03:42.969Z,1026.48
2019-02-06T00:04:42.931Z,1026.43
2019-02-06T00:05:42.895Z,1026.47
2019-02-06T00:06:42.892Z,1026.45
2019-02-06T00:07:42.821Z,1026.45
2019-02-06T00:08:42.782Z,1026.40
2019-02-06T00:09:42.747Z,1026.35
2019-02-06T00:10:42.727Z,1026.35
2019-02-06T00:11:42.674Z,1026.38
2019-02-06T00:12:42.635Z,1026.35
2019-02-06T00:13:42.600Z,1026.36
2019-02-06T00:14:42.583Z,1026.31
2019-02-06T00:15:42.527Z,1026.30
2019-02-06T00:16:42.489Z,1026.31
2019-02-06T00:17:42.452Z,1026.32
2019-02-06T00:18:42.415Z,1026.29
2019-02-06T00:19:42.380Z,1026.30
2019-02-06T00:20:42.343Z,1026.28
2019-02-06T00:21:42.305Z,1026.28
2019-02-06T00:22:42.271Z,1026.31
2019-02-06T00:23:42.232Z,1026.30
2019-02-06T00:24:42.199Z,1026.25
2019-02-06T00:25:42.156Z,1026.24
2019-02-06T00:26:42.120Z,1026.24
2019-02-06T00:27:42.083Z,1026.20
2019-02-06T00:28:42.047Z,1026.27
2019-02-06T00:29:42.008Z,1026.21
2019-02-06T00:30:41.973Z,1026.22
2019-02-06T00:31:41.934Z,1026.23
2019-02-06T00:32:41.896Z,1026.19
2019-02-06T00:33:41.859Z,1026.23
2019-02-06T00:34:41.823Z,1026.19
2019-02-06T00:35:41.787Z,1026.21
2019-02-06T00:36:41.748Z,1026.21
2019-02-06T00:37:41.712Z,1026.23
2019-02-06T00:38:41.675Z,1026.25
2019-02-06T00:39:41.636Z,1026.29
2019-02-06T00:40:41.598Z,1026.30
2019-02-06T00:41:41.563Z,1026.32
2019-02-06T00:42:41.526Z,1026.30
2019-02-06T00:43:41.488Z,1026.25
2019-02-06T00:44:41.450Z,1026.25
2019-02-06T00:45:41.413Z,1026.25
2019-02-06T00:46:41.375Z,1026.27
2019-02-06T00:47:41.341Z,1026.29
2019-02-06T00:48:41.301Z,1026.31
2019-02-06T00:49:41.264Z,1026.34
2019-02-06T00:50:41.227Z,1026.36
2019-02-06T00:51:41.189Z,1026.38
2019-02-06T00:52:41.150Z,1026.42
2019-02-06T00:53:41.114Z,1026.39
2019-02-06T00:54:41.077Z,1026.41
2019-02-06T00:55:41.040Z,1026.39
2019-02-06T00:56:41.001Z,1026.42
2019-02-06T00:57:40.964Z,1026.36
2019-02-06T00:58:40.928Z,1026.34
2019-02-06T00:59:40.890Z,1026.35
2019-02-06T01:00:40.853Z,1026.35
2019-02-06T01:01:40.817Z,1026.33
2019-02-06T01:02:40.777Z,1026.35
2019-02-06T01:03:40.743Z,1026.35
2019-02-06T01:04:40.702Z,1026.34
2019-02-06T01:05:40.664Z,1026.35
2019-02-06T01:06:40.627Z,1026.33
2019-02-06T01:07:40.589Z,1026.29
2019-02-06T01:08:40.552Z,1026.31
2019-02-06T01:09:40.516Z,1026.32
2019-02-06T01:10:40.479Z,1026.28
2019-02-06T01:11:40.440Z,1026.34
2019-02-06T01:12:40.402Z,1026.30
2019-02-06T01:13:40.366Z,1026.35
2019-02-06T01:14:40.328Z,1026.35
2019-02-06T01:15:40.290Z,1026.34
2019-02-06T01:16:40.252Z,1026.36
2019-02-06T01:17:40.220Z,1026.40
2019-02-06T01:18:40.178Z,1026.41
2019-02-06T01:19:40.141Z,1026.41
2019-02-06T01:20:40.105Z,1026.41
2019-02-06T01:21:40.066Z,1026.37
2019-02-06T01:22:40.146Z,1026.45
2019-02-06T01:23:39.993Z,1026.40
2019-02-06T01:24:39.955Z,1026.39
2019-02-06T01:25:39.916Z,1026.41
2019-02-06T01:26:39.879Z,1026.41
2019-02-06T01:27:39.843Z,1026.46
2019-02-06T01:28:39.804Z,1026.42
2019-02-06T01:29:39.768Z,1026.43
2019-02-06T01:30:39.729Z,1026.47
2019-02-06T01:31:39.691Z,1026.47
2019-02-06T01:32:39.653Z,1026.44
2019-02-06T01:33:39.617Z,1026.44
2019-02-06T01:34:39.582Z,1026.42
2019-02-06T01:35:49.598Z,1026.41
2019-02-06T01:36:39.504Z,1026.44
2019-02-06T01:37:39.468Z,1026.47
2019-02-06T01:38:39.429Z,1026.44
2019-02-06T01:39:39.391Z,1026.49
2019-02-06T01:40:39.355Z,1026.49
2019-02-06T01:41:39.317Z,1026.50
2019-02-06T01:42:39.279Z,1026.44
2019-02-06T01:43:39.242Z,1026.43
2019-02-06T01:44:39.205Z,1026.45
2019-02-06T01:45:39.168Z,1026.39
2019-02-06T01:46:39.128Z,1026.39
2019-02-06T01:47:39.096Z,1026.37
2019-02-06T01:48:39.056Z,1026.36
2019-02-06T01:49:39.017Z,1026.37
2019-02-06T01:50:38.979Z,1026.34
2019-02-06T01:51:38.942Z,1026.39
2019-02-06T01:52:38.904Z,1026.34
2019-02-06T01:53:38.867Z,1026.32
2019-02-06T01:54:38.831Z,1026.35
2019-02-06T01:55:38.792Z,1026.31
2019-02-06T01:56:38.754Z,1026.31
2019-02-06T01:57:38.719Z,1026.30
2019-02-06T01:58:38.680Z,1026.21
2019-02-06T01:59:38.643Z,1026.24
2019-02-06T02:00:38.604Z,1026.25
2019-02-06T02:01:38.567Z,1026.24
2019-02-06T02:02:38.529Z,1026.22
2019-02-06T02:03:38.493Z,1026.21
2019-02-06T02:04:38.453Z,1026.24
2019-02-06T02:05:38.417Z,1026.24
2019-02-06T02:06:38.383Z,1026.19
2019-02-06T02:07:38.343Z,1026.22
2019-02-06T02:08:38.303Z,1026.24
2019-02-06T02:09:38.270Z,1026.21
2019-02-06T02:10:38.229Z,1026.26
2019-02-06T02:11:38.197Z,1026.29
2019-02-06T02:12:38.155Z,1026.24
2019-02-06T02:13:38.118Z,1026.27
2019-02-06T02:14:38.083Z,1026.20
2019-02-06T02:15:38.044Z,1026.24
2019-02-06T02:16:38.005Z,1026.22
2019-02-06T02:17:37.968Z,1026.23
2019-02-06T02:18:37.934Z,1026.23
2019-02-06T02:19:37.895Z,1026.21
2019-02-06T02:20:37.857Z,1026.25
2019-02-06T02:21:37.820Z,1026.29
2019-02-06T02:22:37.785Z,1026.29
2019-02-06T02:23:37.749Z,1026.27
2019-02-06T02:24:37.711Z,1026.28
2019-02-06T02:25:37.674Z,1026.31
2019-02-06T02:26:37.636Z,1026.30
2019-02-06T02:27:37.600Z,1026.29
2019-02-06T02:28:37.563Z,1026.26
2019-02-06T02:29:37.529Z,1026.26
2019-02-06T02:30:37.490Z,1026.28
2019-02-06T02:31:37.458Z,1026.27
2019-02-06T02:32:37.415Z,1026.25
2019-02-06T02:33:37.393Z,1026.23
2019-02-06T02:34:37.343Z,1026.28
2019-02-06T02:35:37.309Z,1026.25
2019-02-06T02:36:37.269Z,1026.24
2019-02-06T02:37:37.234Z,1026.20
2019-02-06T02:38:37.200Z,1026.18
2019-02-06T02:39:37.162Z,1026.19
2019-02-06T02:40:37.127Z,1026.18
2019-02-06T02:41:37.088Z,1026.19
2019-02-06T02:42:37.052Z,1026.15
2019-02-06T02:43:37.016Z,1026.15
2019-02-06T02:44:36.980Z,1026.12
2019-02-06T02:45:36.945Z,1026.14
2019-02-06T02:46:36.908Z,1026.16
2019-02-06T02:47:36.872Z,1026.11
2019-02-06T02:48:36.835Z,1026.18
2019-02-06T02:49:36.801Z,1026.11
2019-02-06T02:50:36.761Z,1026.11
2019-02-06T02:51:36.728Z,1026.06
2019-02-06T02:52:36.731Z,1026.02
2019-02-06T02:53:36.652Z,1026.03
2019-02-06T02:54:36.623Z,1025.99
2019-02-06T02:55:36.583Z,1025.97
2019-02-06T02:56:36.544Z,1025.99
2019-02-06T02:57:36.508Z,1026.00
2019-02-06T02:58:36.472Z,1025.95
2019-02-06T02:59:36.436Z,1025.95
2019-02-06T03:00:36.401Z,1025.93
2019-02-06T03:01:36.364Z,1025.95
2019-02-06T03:02:36.328Z,1025.96
2019-02-06T03:03:36.293Z,1025.94
2019-02-06T03:04:36.255Z,1025.96
2019-02-06T03:05:36.222Z,1025.95
2019-02-06T03:06:36.185Z,1025.95
2019-02-06T03:07:36.149Z,1025.93
2019-02-06T03:08:36.112Z,1025.91
2019-02-06T03:09:36.076Z,1025.92
2019-02-06T03:10:36.040Z,1025.93
2019-02-06T03:11:36.003Z,1025.90
2019-02-06T03:12:35.968Z,1025.93
2019-02-06T03:13:35.930Z,1025.88
2019-02-06T03:14:35.907Z,1025.89
2019-02-06T03:15:35.859Z,1025.89
2019-02-06T03:16:35.824Z,1025.82
2019-02-06T03:17:35.790Z,1025.87
2019-02-06T03:18:35.752Z,1025.87
2019-02-06T03:19:35.715Z,1025.87
2019-02-06T03:20:35.679Z,1025.86
2019-02-06T03:21:35.644Z,1025.83
2019-02-06T03:22:35.607Z,1025.82
2019-02-06T03:23:35.572Z,1025.85
2019-02-06T03:24:35.534Z,1025.82
2019-02-06T03:25:35.499Z,1025.80
2019-02-06T03:26:35.465Z,1025.84
2019-02-06T03:27:35.427Z,1025.83
2019-02-06T03:28:35.391Z,1025.83
2019-02-06T03:29:35.369Z,1025.84
2019-02-06T03:30:35.362Z,1025.83
2019-02-06T03:31:35.294Z,1025.78
2019-02-06T03:32:35.331Z,1025.77
2019-02-06T03:33:35.213Z,1025.76
2019-02-06T03:34:35.175Z,1025.74
2019-02-06T03:35:35.143Z,1025.76
2019-02-06T03:36:40.514Z,1025.72
2019-02-06T03:37:35.073Z,1025.76
2019-02-06T03:38:35.035Z,1025.71
2019-02-06T03:39:34.997Z,1025.66
2019-02-06T03:40:34.962Z,1025.67
2019-02-06T03:41:34.929Z,1025.66
2019-02-06T03:42:34.890Z,1025.61
2019-02-06T03:43:34.855Z,1025.64
2019-02-06T03:44:34.818Z,1025.62
2019-02-06T03:45:34.781Z,1025.63
2019-02-06T03:46:34.746Z,1025.57
2019-02-06T03:47:34.711Z,1025.60
2019-02-06T03:48:34.675Z,1025.58
2019-02-06T03:49:34.638Z,1025.57
2019-02-06T03:50:34.603Z,1025.60
2019-02-06T03:51:34.568Z,1025.59
2019-02-06T03:52:34.530Z,1025.58
2019-02-06T03:53:34.495Z,1025.57
2019-02-06T03:54:34.462Z,1025.53
2019-02-06T03:55:34.425Z,1025.56
2019-02-06T03:56:34.388Z,1025.50
2019-02-06T03:57:34.353Z,1025.48
2019-02-06T03:58:34.317Z,1025.43
2019-02-06T03:59:34.285Z,1025.43
2019-02-06T04:00:34.247Z,1025.40
2019-02-06T04:01:34.208Z,1025.38
2019-02-06T04:02:34.172Z,1025.39
2019-02-06T04:03:34.137Z,1025.39
2019-02-06T04:04:34.100Z,1025.36
2019-02-06T04:05:34.069Z,1025.37
2019-02-06T04:06:34.030Z,1025.30
2019-02-06T04:07:33.995Z,1025.28
2019-02-06T04:08:33.956Z,1025.30
2019-02-06T04:09:33.922Z,1025.31
2019-02-06T04:10:33.885Z,1025.30
2019-02-06T04:11:33.918Z,1025.32
2019-02-06T04:12:33.816Z,1025.27
2019-02-06T04:13:33.780Z,1025.29
2019-02-06T04:14:33.744Z,1025.26
2019-02-06T04:15:33.707Z,1025.29
2019-02-06T04:16:33.670Z,1025.25
2019-02-06T04:17:33.639Z,1025.26
2019-02-06T04:18:33.601Z,1025.25
2019-02-06T04:19:33.565Z,1025.24
2019-02-06T04:20:33.528Z,1025.21
2019-02-06T04:21:33.493Z,1025.20
2019-02-06T04:22:33.456Z,1025.24
2019-02-06T04:23:33.422Z,1025.22
2019-02-06T04:24:33.386Z,1025.25
2019-02-06T04:25:33.350Z,1025.23
2019-02-06T04:26:33.318Z,1025.24
2019-02-06T04:27:33.280Z,1025.26
2019-02-06T04:28:33.243Z,1025.19
2019-02-06T04:29:33.209Z,1025.17
2019-02-06T04:30:33.172Z,1025.21
2019-02-06T04:31:33.147Z,1025.14
2019-02-06T04:32:33.099Z,1025.13
2019-02-06T04:33:33.065Z,1025.11
2019-02-06T04:34:33.030Z,1025.10
2019-02-06T04:35:32.993Z,1025.17
2019-02-06T04:36:32.958Z,1025.16
2019-02-06T04:37:32.922Z,1025.17
2019-02-06T04:38:32.887Z,1025.19
2019-02-06T04:39:32.851Z,1025.21
2019-02-06T04:40:32.821Z,1025.18
2019-02-06T04:41:32.779Z,1025.18
2019-02-06T04:42:32.744Z,1025.15
2019-02-06T04:43:32.709Z,1025.13
2019-02-06T04:44:32.674Z,1025.12
2019-02-06T04:45:32.637Z,1025.03
2019-02-06T04:46:32.604Z,1025.05
2019-02-06T04:47:32.566Z,1024.99
2019-02-06T04:48:32.529Z,1025.01
2019-02-06T04:49:32.499Z,1024.95
2019-02-06T04:50:32.458Z,1024.96
2019-02-06T04:51:32.424Z,1024.94
2019-02-06T04:52:32.391Z,1024.90
2019-02-06T04:53:32.351Z,1024.86
2019-02-06T04:54:32.314Z,1024.88
2019-02-06T04:55:32.281Z,1024.90
2019-02-06T04:56:32.243Z,1024.86
2019-02-06T04:57:32.209Z,1024.85
2019-02-06T04:58:32.173Z,1024.84
2019-02-06T04:59:32.193Z,1024.87
2019-02-06T05:00:32.101Z,1024.87
2019-02-06T05:01:32.068Z,1024.81
2019-02-06T05:02:32.028Z,1024.79
2019-02-06T05:03:31.994Z,1024.73
2019-02-06T05:04:31.957Z,1024.73
2019-02-06T05:05:31.922Z,1024.72
2019-02-06T05:06:31.886Z,1024.72
2019-02-06T05:07:31.850Z,1024.64
2019-02-06T05:08:31.814Z,1024.64
2019-02-06T05:09:31.777Z,1024.61
2019-02-06T05:10:31.742Z,1024.62
2019-02-06T05:11:31.707Z,1024.63
2019-02-06T05:12:31.670Z,1024.62
2019-02-06T05:13:31.634Z,1024.65
2019-02-06T05:14:31.598Z,1024.65
2019-02-06T05:15:31.564Z,1024.63
2019-02-06T05:16:31.527Z,1024.62
2019-02-06T05:17:31.490Z,1024.59
2019-02-06T05:18:31.454Z,1024.59
2019-02-06T05:19:31.425Z,1024.58
2019-02-06T05:20:31.382Z,1024.52
2019-02-06T05:21:31.347Z,1024.53
2019-02-06T05:22:31.314Z,1024.50
2019-02-06T05:23:31.276Z,1024.46
2019-02-06T05:24:31.241Z,1024.45
2019-02-06T05:25:31.203Z,1024.39
2019-02-06T05:26:31.167Z,1024.38
2019-02-06T05:27:31.132Z,1024.43
2019-02-06T05:28:31.097Z,1024.35
2019-02-06T05:29:31.059Z,1024.39
2019-02-06T05:30:31.024Z,1024.41
2019-02-06T05:31:30.989Z,1024.39
2019-02-06T05:32:30.952Z,1024.38
2019-02-06T05:33:30.915Z,1024.33
2019-02-06T05:34:30.880Z,1024.27
2019-02-06T05:35:30.845Z,1024.24
2019-02-06T05:36:30.809Z,1024.29
2019-02-06T05:37:32.354Z,1024.21
2019-02-06T05:38:30.739Z,1024.20
2019-02-06T05:39:30.700Z,1024.18
2019-02-06T05:40:30.665Z,1024.13
2019-02-06T05:41:30.628Z,1024.10
2019-02-06T05:42:30.592Z,1024.14
2019-02-06T05:43:30.558Z,1024.13
2019-02-06T05:44:30.519Z,1024.14
2019-02-06T05:45:30.486Z,1024.18
2019-02-06T05:46:30.449Z,1024.18
2019-02-06T05:47:30.437Z,1024.19
2019-02-06T05:48:30.376Z,1024.21
2019-02-06T05:49:30.339Z,1024.19
2019-02-06T05:50:30.302Z,1024.18
2019-02-06T05:51:30.266Z,1024.17
2019-02-06T05:52:30.234Z,1024.14
2019-02-06T05:53:30.193Z,1024.13
2019-02-06T05:54:30.159Z,1024.13
2019-02-06T05:55:30.122Z,1024.09
2019-02-06T05:56:30.084Z,1024.02
2019-02-06T05:57:30.051Z,1024.02
2019-02-06T05:58:30.012Z,1023.98
2019-02-06T05:59:29.976Z,1023.99
2019-02-06T06:00:29.940Z,1023.94
2019-02-06T06:01:29.902Z,1023.95
2019-02-06T06:02:29.868Z,1023.95
2019-02-06T06:03:29.832Z,1023.96
2019-02-06T06:04:29.793Z,1023.93
2019-02-06T06:05:29.757Z,1023.95
2019-02-06T06:06:29.724Z,1023.92
2019-02-06T06:07:29.686Z,1023.94
2019-02-06T06:08:29.647Z,1023.92
2019-02-06T06:09:29.615Z,1023.91
2019-02-06T06:10:29.577Z,1023.95
2019-02-06T06:11:29.547Z,1023.95
2019-02-06T06:12:29.503Z,1023.97
2019-02-06T06:13:29.517Z,1023.98
2019-02-06T06:14:29.429Z,1024.01
2019-02-06T06:15:29.391Z,1023.98
2019-02-06T06:16:29.355Z,1024.03
2019-02-06T06:17:29.319Z,1024.00
2019-02-06T06:18:29.282Z,1023.94
2019-02-06T06:19:29.246Z,1023.91
2019-02-06T06:20:29.209Z,1023.88
2019-02-06T06:21:29.172Z,1023.94
2019-02-06T06:22:29.136Z,1023.91
2019-02-06T06:23:29.099Z,1023.97
2019-02-06T06:24:29.065Z,1023.97
2019-02-06T06:25:29.033Z,1024.00
2019-02-06T06:26:28.990Z,1023.98
2019-02-06T06:27:28.983Z,1023.96
2019-02-06T06:28:29.218Z,1023.96
2019-02-06T06:29:28.891Z,1023.95
2019-02-06T06:30:28.844Z,1023.96
2019-02-06T06:31:28.810Z,1023.99
2019-02-06T06:32:31.833Z,1023.99
2019-02-06T06:33:28.733Z,1024.02
2019-02-06T06:34:28.696Z,1024.01
2019-02-06T06:35:28.660Z,1024.02
2019-02-06T06:36:28.625Z,1024.01
2019-02-06T06:37:28.588Z,1024.01
2019-02-06T06:38:28.551Z,1024.02
2019-02-06T06:39:28.514Z,1024.01
2019-02-06T06:40:28.476Z,1024.07
2019-02-06T06:41:28.440Z,1024.08
2019-02-06T06:42:28.404Z,1024.07
2019-02-06T06:43:28.373Z,1024.07
2019-02-06T06:44:28.331Z,1024.04
2019-02-06T06:45:28.293Z,1024.07
2019-02-06T06:46:28.257Z,1024.08
2019-02-06T06:47:28.221Z,1024.06
2019-02-06T06:48:28.184Z,1024.07
2019-02-06T06:49:28.147Z,1024.08
2019-02-06T06:50:28.110Z,1024.07
2019-02-06T06:51:28.075Z,1024.04
2019-02-06T06:52:28.038Z,1023.96
2019-02-06T06:53:28.001Z,1023.98
2019-02-06T06:54:27.964Z,1023.96
2019-02-06T06:55:27.927Z,1023.97
2019-02-06T06:56:27.890Z,1023.97
2019-02-06T06:57:27.853Z,1023.99
2019-02-06T06:58:27.819Z,1023.98
2019-02-06T06:59:27.803Z,1023.97
2019-02-06T07:00:27.743Z,1023.97
2019-02-06T07:01:27.710Z,1023.96
2019-02-06T07:02:27.669Z,1023.97
2019-02-06T07:03:27.642Z,1023.95
2019-02-06T07:04:27.597Z,1023.94
2019-02-06T07:05:27.560Z,1023.91
2019-02-06T07:06:27.524Z,1023.92
2019-02-06T07:07:27.488Z,1023.91
2019-02-06T07:08:27.450Z,1023.87
2019-02-06T07:09:27.420Z,1023.83
2019-02-06T07:10:27.385Z,1023.82
2019-02-06T07:11:27.340Z,1023.82
2019-02-06T07:12:27.303Z,1023.79
2019-02-06T07:13:27.266Z,1023.82
2019-02-06T07:14:27.230Z,1023.77
2019-02-06T07:15:27.193Z,1023.80
2019-02-06T07:16:27.156Z,1023.82
2019-02-06T07:17:27.123Z,1023.81
2019-02-06T07:18:27.084Z,1023.84
2019-02-06T07:19:27.047Z,1023.88
2019-02-06T07:20:27.032Z,1023.87
2019-02-06T07:21:26.974Z,1023.87
2019-02-06T07:22:26.939Z,1023.87
2019-02-06T07:23:26.902Z,1023.90
2019-02-06T07:24:26.866Z,1023.92
2019-02-06T07:25:26.830Z,1023.84
2019-02-06T07:26:26.792Z,1023.81
2019-02-06T07:27:26.757Z,1023.78
2019-02-06T07:28:26.719Z,1023.77
2019-02-06T07:29:26.686Z,1023.83
2019-02-06T07:30:26.647Z,1023.79
2019-02-06T07:31:26.610Z,1023.80
2019-02-06T07:32:26.573Z,1023.83
2019-02-06T07:33:26.538Z,1023.81
2019-02-06T07:34:26.501Z,1023.86
2019-02-06T07:35:26.468Z,1023.88
2019-02-06T07:36:26.430Z,1023.85
2019-02-06T07:37:26.393Z,1023.85
2019-02-06T07:38:26.358Z,1023.80
2019-02-06T07:39:26.322Z,1023.84
2019-02-06T07:40:26.286Z,1023.83
2019-02-06T07:41:26.252Z,1023.91
2019-02-06T07:42:26.214Z,1023.88
2019-02-06T07:43:26.178Z,1023.88
2019-02-06T07:44:26.143Z,1023.88
2019-02-06T07:45:26.105Z,1023.86
2019-02-06T07:46:26.078Z,1023.92
2019-02-06T07:47:26.045Z,1023.88
2019-02-06T07:48:26.000Z,1023.92
2019-02-06T07:49:25.963Z,1023.87
2019-02-06T07:50:25.927Z,1023.86
2019-02-06T07:51:25.891Z,1023.83
2019-02-06T07:52:25.857Z,1023.82
2019-02-06T07:53:25.819Z,1023.80
2019-02-06T07:54:25.879Z,1023.81
2019-02-06T07:55:25.748Z,1023.85
2019-02-06T07:56:25.713Z,1023.81
2019-02-06T07:57:25.677Z,1023.83
2019-02-06T07:58:25.643Z,1023.78
2019-02-06T07:59:25.609Z,1023.70
2019-02-06T08:00:25.571Z,1023.71
2019-02-06T08:01:25.536Z,1023.73
2019-02-06T08:02:25.499Z,1023.76
2019-02-06T08:03:25.464Z,1023.74
2019-02-06T08:04:25.575Z,1023.75
2019-02-06T08:05:25.396Z,1023.75
2019-02-06T08:06:25.359Z,1023.69
2019-02-06T08:07:25.322Z,1023.68
2019-02-06T08:08:35.649Z,1023.67
2019-02-06T08:09:25.305Z,1023.64
2019-02-06T08:10:25.220Z,1023.66
2019-02-06T08:11:25.181Z,1023.69
2019-02-06T08:12:25.145Z,1023.66
2019-02-06T08:13:25.109Z,1023.63
2019-02-06T08:14:25.075Z,1023.60
2019-02-06T08:15:25.038Z,1023.64
2019-02-06T08:16:25.001Z,1023.62
2019-02-06T08:17:24.966Z,1023.58
2019-02-06T08:18:24.933Z,1023.60
2019-02-06T08:19:24.896Z,1023.59
2019-02-06T08:20:24.861Z,1023.65
2019-02-06T08:21:24.825Z,1023.59
2019-02-06T08:22:24.794Z,1023.59
2019-02-06T08:23:24.754Z,1023.55
2019-02-06T08:24:24.718Z,1023.52
2019-02-06T08:25:24.687Z,1023.53
2019-02-06T08:26:24.648Z,1023.49
2019-02-06T08:27:26.450Z,1023.44
2019-02-06T08:28:24.578Z,1023.39
2019-02-06T08:29:24.543Z,1023.35
2019-02-06T08:30:24.508Z,1023.29
2019-02-06T08:31:24.471Z,1023.28
2019-02-06T08:32:24.435Z,1023.24
2019-02-06T08:33:24.401Z,1023.18
2019-02-06T08:34:24.368Z,1023.15
2019-02-06T08:35:24.335Z,1023.16
2019-02-06T08:36:24.297Z,1023.16
2019-02-06T08:37:24.262Z,1023.20
2019-02-06T08:38:24.227Z,1023.21
2019-02-06T08:39:24.194Z,1023.25
2019-02-06T08:40:24.158Z,1023.27
2019-02-06T08:41:24.123Z,1023.23
2019-02-06T08:42:24.090Z,1023.23
2019-02-06T08:43:24.054Z,1023.26
2019-02-06T08:44:24.020Z,1023.28
2019-02-06T08:45:23.990Z,1023.27
2019-02-06T08:46:23.951Z,1023.29
2019-02-06T08:47:23.916Z,1023.21
2019-02-06T08:48:23.881Z,1023.18
2019-02-06T08:49:23.847Z,1023.11
2019-02-06T08:50:23.814Z,1023.10
2019-02-06T08:51:23.778Z,1023.10
2019-02-06T08:52:23.742Z,1023.09
2019-02-06T08:53:23.708Z,1023.09
2019-02-06T08:54:23.675Z,1023.11
2019-02-06T08:55:23.640Z,1023.09
2019-02-06T08:56:23.604Z,1023.10
2019-02-06T08:57:23.570Z,1023.11
2019-02-06T08:58:23.537Z,1023.14
2019-02-06T08:59:23.501Z,1023.14
2019-02-06T09:00:23.467Z,1023.14
2019-02-06T09:01:23.434Z,1023.11
2019-02-06T09:02:23.398Z,1023.13
2019-02-06T09:03:23.365Z,1023.12
2019-02-06T09:04:23.335Z,1023.08
2019-02-06T09:05:23.295Z,1023.13
2019-02-06T09:06:23.262Z,1023.11
2019-02-06T09:07:23.228Z,1023.14
2019-02-06T09:08:23.191Z,1023.13
2019-02-06T09:09:23.160Z,1023.12
2019-02-06T09:10:23.125Z,1023.13
2019-02-06T09:11:23.092Z,1023.14
2019-02-06T09:12:23.056Z,1023.07
2019-02-06T09:13:23.022Z,1023.11
2019-02-06T09:14:22.989Z,1023.06
2019-02-06T09:15:22.955Z,1023.02
2019-02-06T09:16:22.931Z,1022.93
2019-02-06T09:17:22.887Z,1022.95
2019-02-06T09:18:22.854Z,1022.95
2019-02-06T09:19:22.820Z,1022.96
2019-02-06T09:20:22.788Z,1023.01
2019-02-06T09:21:22.751Z,1022.95
2019-02-06T09:22:22.719Z,1022.99
2019-02-06T09:23:22.712Z,1022.97
2019-02-06T09:24:22.684Z,1022.90
2019-02-06T09:25:22.617Z,1022.93
2019-02-06T09:26:22.627Z,1022.87
2019-02-06T09:27:22.551Z,1022.90
2019-02-06T09:28:22.518Z,1022.82
2019-02-06T09:29:22.485Z,1022.80
2019-02-06T09:30:22.452Z,1022.82
2019-02-06T09:31:22.456Z,1022.78
2019-02-06T09:32:22.383Z,1022.76
2019-02-06T09:33:22.351Z,1022.71
2019-02-06T09:34:22.346Z,1022.78
2019-02-06T09:35:22.283Z,1022.76
2019-02-06T09:36:22.249Z,1022.76
2019-02-06T09:37:22.215Z,1022.76
2019-02-06T09:38:22.183Z,1022.78
2019-02-06T09:39:22.151Z,1022.76
2019-02-06T09:40:22.116Z,1022.73
2019-02-06T09:41:22.083Z,1022.77
2019-02-06T09:42:22.048Z,1022.79
2019-02-06T09:43:22.015Z,1022.77
2019-02-06T09:44:21.981Z,1022.77
2019-02-06T09:45:21.947Z,1022.76
2019-02-06T09:46:21.912Z,1022.76
2019-02-06T09:47:21.880Z,1022.77
2019-02-06T09:48:21.842Z,1022.71
2019-02-06T09:49:21.810Z,1022.67
2019-02-06T09:50:21.806Z,1022.70
2019-02-06T09:51:21.744Z,1022.70
2019-02-06T09:52:21.708Z,1022.67
2019-02-06T09:53:21.675Z,1022.64
2019-02-06T09:54:21.641Z,1022.59
2019-02-06T09:55:21.608Z,1022.54
2019-02-06T09:56:21.573Z,1022.57
2019-02-06T09:57:21.542Z,1022.56
2019-02-06T09:58:21.507Z,1022.55
2019-02-06T09:59:21.474Z,1022.57
2019-02-06T10:00:21.437Z,1022.51
2019-02-06T10:01:21.716Z,1022.47
2019-02-06T10:02:21.371Z,1022.43
2019-02-06T10:03:21.336Z,1022.45
2019-02-06T10:04:21.303Z,1022.45
2019-02-06T10:05:21.268Z,1022.51
2019-02-06T10:06:21.235Z,1022.59
2019-02-06T10:07:21.201Z,1022.51
2019-02-06T10:08:21.167Z,1022.56
2019-02-06T10:09:22.945Z,1022.44
2019-02-06T10:10:21.099Z,1022.43
2019-02-06T10:11:21.066Z,1022.50
2019-02-06T10:12:21.032Z,1022.54
2019-02-06T10:13:20.997Z,1022.53
2019-02-06T10:14:20.974Z,1022.48
2019-02-06T10:15:20.929Z,1022.49
2019-02-06T10:16:20.895Z,1022.48
2019-02-06T10:17:20.861Z,1022.49
2019-02-06T10:18:20.828Z,1022.47
2019-02-06T10:19:20.795Z,1022.49
2019-02-06T10:20:20.759Z,1022.50
2019-02-06T10:21:20.731Z,1022.47
2019-02-06T10:22:20.692Z,1022.42
2019-02-06T10:23:20.659Z,1022.40
2019-02-06T10:24:20.625Z,1022.38
2019-02-06T10:25:20.590Z,1022.42
2019-02-06T10:26:20.558Z,1022.38
2019-02-06T10:27:20.524Z,1022.42
2019-02-06T10:28:20.489Z,1022.39
2019-02-06T10:29:20.456Z,1022.41
2019-02-06T10:30:20.420Z,1022.38
2019-02-06T10:31:20.388Z,1022.37
2019-02-06T10:32:20.352Z,1022.36
2019-02-06T10:33:20.352Z,1022.34
2019-02-06T10:34:20.347Z,1022.35
2019-02-06T10:35:20.252Z,1022.34
2019-02-06T10:36:20.219Z,1022.31
2019-02-06T10:37:20.182Z,1022.34
2019-02-06T10:38:20.150Z,1022.38
2019-02-06T10:39:20.122Z,1022.33
2019-02-06T10:40:20.080Z,1022.39
2019-02-06T10:41:20.047Z,1022.35
2019-02-06T10:42:20.013Z,1022.36
2019-02-06T10:43:31.305Z,1022.32
2019-02-06T10:44:19.945Z,1022.33
2019-02-06T10:45:21.035Z,1022.28
2019-02-06T10:46:19.883Z,1022.29
2019-02-06T10:47:19.845Z,1022.29
2019-02-06T10:48:19.811Z,1022.30
2019-02-06T10:49:19.777Z,1022.24
2019-02-06T10:50:19.745Z,1022.22
2019-02-06T10:51:19.710Z,1022.24
2019-02-06T10:52:19.677Z,1022.17
2019-02-06T10:53:19.642Z,1022.23
2019-02-06T10:54:19.607Z,1022.14
2019-02-06T10:55:19.575Z,1022.16
2019-02-06T10:56:19.540Z,1022.12
2019-02-06T10:57:19.506Z,1022.12
2019-02-06T10:58:19.472Z,1022.09
2019-02-06T10:59:19.443Z,1022.10
2019-02-06T11:00:19.406Z,1022.03
2019-02-06T11:01:19.371Z,1021.96
2019-02-06T11:02:19.339Z,1022.00
2019-02-06T11:03:19.308Z,1022.00
2019-02-06T11:04:19.271Z,1022.06
2019-02-06T11:05:19.237Z,1021.95
2019-02-06T11:06:19.205Z,1021.91
2019-02-06T11:07:19.172Z,1021.97
2019-02-06T11:08:19.139Z,1021.93
2019-02-06T11:09:19.104Z,1021.89
2019-02-06T11:10:19.072Z,1021.89
2019-02-06T11:11:19.042Z,1021.87
2019-02-06T11:12:19.004Z,1021.84
2019-02-06T11:13:18.970Z,1021.78
2019-02-06T11:14:18.939Z,1021.75
2019-02-06T11:15:18.904Z,1021.75
2019-02-06T11:16:18.870Z,1021.79
2019-02-06T11:17:18.837Z,1021.75
2019-02-06T11:18:18.806Z,1021.71
2019-02-06T11:19:18.773Z,1021.71
2019-02-06T11:20:18.738Z,1021.71
2019-02-06T11:21:18.704Z,1021.61
2019-02-06T11:22:18.671Z,1021.61
2019-02-06T11:23:18.638Z,1021.54
2019-02-06T11:24:18.604Z,1021.57
2019-02-06T11:25:18.572Z,1021.55
2019-02-06T11:26:18.539Z,1021.55
2019-02-06T11:27:18.507Z,1021.54
2019-02-06T11:28:18.472Z,1021.62
2019-02-06T11:29:18.438Z,1021.58
2019-02-06T11:30:18.408Z,1021.52
2019-02-06T11:31:18.375Z,1021.53
2019-02-06T11:32:18.341Z,1021.44
2019-02-06T11:33:18.305Z,1021.46
2019-02-06T11:34:18.273Z,1021.41
2019-02-06T11:35:18.240Z,1021.38
2019-02-06T11:36:24.286Z,1021.37
2019-02-06T11:37:18.173Z,1021.34
2019-02-06T11:38:18.140Z,1021.28
2019-02-06T11:39:18.106Z,1021.26
2019-02-06T11:40:18.075Z,1021.25
2019-02-06T11:41:18.046Z,1021.26
2019-02-06T11:42:18.012Z,1021.23
2019-02-06T11:43:17.974Z,1021.26
2019-02-06T11:44:17.942Z,1021.22
2019-02-06T11:45:17.909Z,1021.22
2019-02-06T11:46:17.875Z,1021.22
2019-02-06T11:47:17.842Z,1021.20
2019-02-06T11:48:17.809Z,1021.20
2019-02-06T11:49:17.775Z,1021.21
2019-02-06T11:50:17.743Z,1021.18
2019-02-06T11:51:17.711Z,1021.25
2019-02-06T11:52:17.676Z,1021.13
2019-02-06T11:53:17.646Z,1021.12
2019-02-06T11:54:17.611Z,1021.06
2019-02-06T11:55:17.580Z,1021.10
2019-02-06T11:56:17.549Z,1021.05
2019-02-06T11:57:17.514Z,1021.08
2019-02-06T11:58:17.480Z,1021.05
2019-02-06T11:59:17.447Z,1021.05
2019-02-06T12:00:17.413Z,1021.07
2019-02-06T12:01:17.380Z,1021.05
2019-02-06T12:02:17.347Z,1021.02
2019-02-06T12:03:17.315Z,1021.00
2019-02-06T12:04:17.281Z,1021.05
2019-02-06T12:05:17.249Z,1021.03